sensor_id;sensor_type;location;lat;lon;timestamp;pressure;altitude;pressure_sealevel;temperature;humidity
64679;BME280;51094;53.864;27.676;2023-05-09T00:01:23;100765.06;;;5.43;52.80
64679;BME280;51094;53.864;27.676;2023-05-09T00:03:50;100743.59;;;5.41;52.72
64679;BME280;51094;53.864;27.676;2023-05-09T00:06:18;100722.41;;;5.30;53.10
64679;BME280;51094;53.864;27.676;2023-05-09T00:08:45;100655.56;;;4.88;52.91
64679;BME280;51094;53.864;27.676;2023-05-09T00:11:12;100693.75;;;5.08;52.74
64679;BME280;51094;53.864;27.676;2023-05-09T00:13:39;100737.69;;;5.38;52.73
64679;BME280;51094;53.864;27.676;2023-05-09T00:16:07;100655.69;;;4.84;52.60
64679;BME280;51094;53.864;27.676;2023-05-09T00:18:35;100526.81;;;3.83;52.86
64679;BME280;51094;53.864;27.676;2023-05-09T00:21:03;100748.53;;;5.18;53.00
64679;BME280;51094;53.864;27.676;2023-05-09T00:23:30;100703.59;;;4.92;53.71
64679;BME280;51094;53.864;27.676;2023-05-09T00:25:58;100740.69;;;5.21;53.20
64679;BME280;51094;53.864;27.676;2023-05-09T00:28:25;100747.56;;;5.20;53.44
64679;BME280;51094;53.864;27.676;2023-05-09T00:30:52;100715.44;;;4.99;53.23
64679;BME280;51094;53.864;27.676;2023-05-09T00:33:19;100687.41;;;4.86;53.29
64679;BME280;51094;53.864;27.676;2023-05-09T00:35:46;100602.72;;;4.38;53.39
64679;BME280;51094;53.864;27.676;2023-05-09T00:38:13;100675.47;;;4.83;52.78
64679;BME280;51094;53.864;27.676;2023-05-09T00:40:40;100616.88;;;4.20;53.64
64679;BME280;51094;53.864;27.676;2023-05-09T00:43:07;100658.06;;;4.57;53.25
64679;BME280;51094;53.864;27.676;2023-05-09T00:45:34;100600.81;;;4.09;52.56
64679;BME280;51094;53.864;27.676;2023-05-09T00:48:02;100599.91;;;4.12;53.00
64679;BME280;51094;53.864;27.676;2023-05-09T00:50:29;100691.41;;;4.63;53.41
64679;BME280;51094;53.864;27.676;2023-05-09T00:52:57;100702.94;;;4.47;53.35
64679;BME280;51094;53.864;27.676;2023-05-09T00:55:24;100691.53;;;4.22;54.44
64679;BME280;51094;53.864;27.676;2023-05-09T00:57:52;100737.66;;;4.70;53.84
64679;BME280;51094;53.864;27.676;2023-05-09T01:00:19;100805.22;;;4.42;53.80
64679;BME280;51094;53.864;27.676;2023-05-09T01:02:50;100532.16;;;3.36;54.48
64679;BME280;51094;53.864;27.676;2023-05-09T01:05:24;100687.91;;;4.30;54.41
64679;BME280;51094;53.864;27.676;2023-05-09T01:08:13;100649.41;;;3.86;54.66
64679;BME280;51094;53.864;27.676;2023-05-09T01:10:55;100748.41;;;4.50;54.91
64679;BME280;51094;53.864;27.676;2023-05-09T01:13:36;100736.34;;;4.52;54.94
64679;BME280;51094;53.864;27.676;2023-05-09T01:16:15;100716.25;;;4.29;54.57
64679;BME280;51094;53.864;27.676;2023-05-09T01:21:49;100667.91;;;4.01;54.86
64679;BME280;51094;53.864;27.676;2023-05-09T01:27:38;100524.69;;;3.23;54.95
64679;BME280;51094;53.864;27.676;2023-05-09T01:30:11;100756.00;;;4.56;54.96
64679;BME280;51094;53.864;27.676;2023-05-09T01:32:41;100691.84;;;4.07;54.85
64679;BME280;51094;53.864;27.676;2023-05-09T01:35:12;100594.53;;;3.45;55.66
64679;BME280;51094;53.864;27.676;2023-05-09T01:37:42;100686.09;;;3.94;55.09
64679;BME280;51094;53.864;27.676;2023-05-09T01:40:13;100101.56;;;-0.11;55.39
64679;BME280;51094;53.864;27.676;2023-05-09T01:42:47;100642.66;;;3.80;55.61
64679;BME280;51094;53.864;27.676;2023-05-09T01:45:16;100753.63;;;4.47;55.46
64679;BME280;51094;53.864;27.676;2023-05-09T01:47:46;100800.91;;;4.44;55.35
64679;BME280;51094;53.864;27.676;2023-05-09T01:50:16;100692.63;;;3.68;55.55
64679;BME280;51094;53.864;27.676;2023-05-09T01:52:46;100640.41;;;3.65;55.50
64679;BME280;51094;53.864;27.676;2023-05-09T01:55:14;100691.94;;;4.02;56.30
64679;BME280;51094;53.864;27.676;2023-05-09T01:57:45;100725.13;;;4.16;56.04
64679;BME280;51094;53.864;27.676;2023-05-09T02:00:13;100515.22;;;2.82;55.71
64679;BME280;51094;53.864;27.676;2023-05-09T02:02:42;100751.59;;;4.22;55.89
64679;BME280;51094;53.864;27.676;2023-05-09T02:05:10;100644.22;;;3.46;55.53
64679;BME280;51094;53.864;27.676;2023-05-09T02:07:39;100629.59;;;3.48;55.53
64679;BME280;51094;53.864;27.676;2023-05-09T02:10:08;100755.81;;;4.25;55.75
64679;BME280;51094;53.864;27.676;2023-05-09T02:12:36;100760.13;;;4.24;55.35
64679;BME280;51094;53.864;27.676;2023-05-09T02:15:05;100735.66;;;4.04;55.66
64679;BME280;51094;53.864;27.676;2023-05-09T02:17:32;100633.19;;;3.41;56.09
64679;BME280;51094;53.864;27.676;2023-05-09T02:19:59;100575.41;;;3.15;56.30
64679;BME280;51094;53.864;27.676;2023-05-09T02:22:26;100751.78;;;4.13;56.03
64679;BME280;51094;53.864;27.676;2023-05-09T02:24:53;100718.00;;;3.87;56.46
64679;BME280;51094;53.864;27.676;2023-05-09T02:27:20;100632.53;;;3.29;56.19
64679;BME280;51094;53.864;27.676;2023-05-09T02:29:50;100818.94;;;4.01;55.96
64679;BME280;51094;53.864;27.676;2023-05-09T02:32:22;100551.22;;;2.81;56.04
64679;BME280;51094;53.864;27.676;2023-05-09T02:34:52;100720.56;;;3.88;56.42
64679;BME280;51094;53.864;27.676;2023-05-09T02:37:20;100688.28;;;3.72;56.82
64679;BME280;51094;53.864;27.676;2023-05-09T02:39:47;100640.31;;;3.26;56.62
64679;BME280;51094;53.864;27.676;2023-05-09T02:42:19;100696.81;;;3.74;56.46
64679;BME280;51094;53.864;27.676;2023-05-09T02:44:46;100490.16;;;2.50;56.32
64679;BME280;51094;53.864;27.676;2023-05-09T02:47:14;100676.47;;;3.62;56.05
64679;BME280;51094;53.864;27.676;2023-05-09T02:49:41;100728.34;;;3.84;56.33
64679;BME280;51094;53.864;27.676;2023-05-09T02:52:08;100754.44;;;4.09;56.33
64679;BME280;51094;53.864;27.676;2023-05-09T02:54:35;100745.88;;;4.08;57.03
64679;BME280;51094;53.864;27.676;2023-05-09T02:57:02;100695.94;;;3.75;56.94
64679;BME280;51094;53.864;27.676;2023-05-09T02:59:29;100705.28;;;3.79;56.97
64679;BME280;51094;53.864;27.676;2023-05-09T03:01:59;100769.69;;;4.18;56.99
64679;BME280;51094;53.864;27.676;2023-05-09T03:04:27;100751.59;;;4.22;57.00
64679;BME280;51094;53.864;27.676;2023-05-09T03:06:54;100545.75;;;2.99;56.91
64679;BME280;51094;53.864;27.676;2023-05-09T03:09:22;100751.53;;;4.25;56.71
64679;BME280;51094;53.864;27.676;2023-05-09T03:11:49;100664.63;;;3.53;56.72
64679;BME280;51094;53.864;27.676;2023-05-09T03:14:16;100597.44;;;3.27;57.09
64679;BME280;51094;53.864;27.676;2023-05-09T03:16:43;100664.59;;;3.55;56.83
64679;BME280;51094;53.864;27.676;2023-05-09T03:19:19;100793.56;;;4.26;57.19
64679;BME280;51094;53.864;27.676;2023-05-09T03:21:46;100506.75;;;2.79;56.75
64679;BME280;51094;53.864;27.676;2023-05-09T03:24:12;100757.22;;;4.38;57.02
64679;BME280;51094;53.864;27.676;2023-05-09T03:26:39;100644.44;;;3.77;57.20
64679;BME280;51094;53.864;27.676;2023-05-09T03:29:06;100764.72;;;4.49;57.23
64679;BME280;51094;53.864;27.676;2023-05-09T03:31:33;99998.63;;;-0.22;56.39
64679;BME280;51094;53.864;27.676;2023-05-09T03:34:00;100632.47;;;3.76;56.53
64679;BME280;51094;53.864;27.676;2023-05-09T03:36:27;100777.53;;;4.53;56.27
64679;BME280;51094;53.864;27.676;2023-05-09T03:38:54;100546.88;;;3.27;56.12
64679;BME280;51094;53.864;27.676;2023-05-09T03:41:22;100733.19;;;4.39;56.61
64679;BME280;51094;53.864;27.676;2023-05-09T03:43:49;100623.44;;;3.55;56.71
64679;BME280;51094;53.864;27.676;2023-05-09T03:46:15;100776.47;;;4.62;56.97
64679;BME280;51094;53.864;27.676;2023-05-09T03:48:45;100729.53;;;4.49;57.40
64679;BME280;51094;53.864;27.676;2023-05-09T03:51:12;100768.31;;;4.80;56.74
64679;BME280;51094;53.864;27.676;2023-05-09T03:53:40;100516.63;;;3.40;56.48
64679;BME280;51094;53.864;27.676;2023-05-09T03:56:08;100737.50;;;4.76;55.97
64679;BME280;51094;53.864;27.676;2023-05-09T03:58:43;100655.09;;;4.37;56.19
64679;BME280;51094;53.864;27.676;2023-05-09T04:01:11;100723.16;;;4.27;56.08
64679;BME280;51094;53.864;27.676;2023-05-09T04:03:38;100781.91;;;5.22;56.55
64679;BME280;51094;53.864;27.676;2023-05-09T04:06:06;100769.47;;;5.04;56.39
64679;BME280;51094;53.864;27.676;2023-05-09T04:08:36;100776.25;;;5.42;55.32
64679;BME280;51094;53.864;27.676;2023-05-09T04:11:04;100665.19;;;4.82;55.14
64679;BME280;51094;53.864;27.676;2023-05-09T04:13:32;100606.41;;;4.63;55.20
64679;BME280;51094;53.864;27.676;2023-05-09T04:16:04;100716.72;;;5.50;54.31
64679;BME280;51094;53.864;27.676;2023-05-09T04:18:32;100771.19;;;6.04;53.90
64679;BME280;51094;53.864;27.676;2023-05-09T04:20:59;100616.81;;;5.24;53.98
64679;BME280;51094;53.864;27.676;2023-05-09T04:23:26;100654.88;;;5.47;53.12
64679;BME280;51094;53.864;27.676;2023-05-09T04:25:56;100772.59;;;6.14;52.89
64679;BME280;51094;53.864;27.676;2023-05-09T04:28:23;100704.91;;;6.05;53.39
64679;BME280;51094;53.864;27.676;2023-05-09T04:30:50;100636.66;;;5.82;52.62
64679;BME280;51094;53.864;27.676;2023-05-09T04:33:18;100576.56;;;5.49;52.26
64679;BME280;51094;53.864;27.676;2023-05-09T04:35:46;100727.06;;;6.67;51.19
64679;BME280;51094;53.864;27.676;2023-05-09T04:38:14;100697.13;;;6.60;49.51
64679;BME280;51094;53.864;27.676;2023-05-09T04:40:42;100788.97;;;7.26;49.27
64679;BME280;51094;53.864;27.676;2023-05-09T04:43:09;100783.91;;;7.48;48.42
64679;BME280;51094;53.864;27.676;2023-05-09T04:45:36;100786.63;;;7.70;47.89
64679;BME280;51094;53.864;27.676;2023-05-09T04:48:03;100783.31;;;7.90;46.72
64679;BME280;51094;53.864;27.676;2023-05-09T04:50:30;100769.53;;;7.89;46.13
64679;BME280;51094;53.864;27.676;2023-05-09T04:52:57;100693.53;;;7.67;46.02
64679;BME280;51094;53.864;27.676;2023-05-09T04:55:23;100781.75;;;8.34;44.12
64679;BME280;51094;53.864;27.676;2023-05-09T04:57:51;100786.59;;;8.43;43.47
64679;BME280;51094;53.864;27.676;2023-05-09T05:00:18;100664.47;;;7.82;43.10
64679;BME280;51094;53.864;27.676;2023-05-09T05:02:47;100777.94;;;8.66;43.13
64679;BME280;51094;53.864;27.676;2023-05-09T05:05:14;100681.75;;;8.27;43.03
64679;BME280;51094;53.864;27.676;2023-05-09T05:07:42;100790.25;;;9.05;42.91
64679;BME280;51094;53.864;27.676;2023-05-09T05:10:12;100687.31;;;8.63;41.79
64679;BME280;51094;53.864;27.676;2023-05-09T05:12:42;100784.44;;;9.40;40.55
64679;BME280;51094;53.864;27.676;2023-05-09T05:15:12;100555.00;;;8.22;39.44
64679;BME280;51094;53.864;27.676;2023-05-09T05:17:42;100776.06;;;9.74;40.00
64679;BME280;51094;53.864;27.676;2023-05-09T05:20:09;100762.03;;;9.78;39.13
64679;BME280;51094;53.864;27.676;2023-05-09T05:22:40;100781.09;;;9.97;37.53
64679;BME280;51094;53.864;27.676;2023-05-09T05:25:08;100600.91;;;9.03;38.47
64679;BME280;51094;53.864;27.676;2023-05-09T05:27:36;100775.09;;;10.16;38.26
64679;BME280;51094;53.864;27.676;2023-05-09T05:30:03;100770.28;;;10.27;37.72
64679;BME280;51094;53.864;27.676;2023-05-09T05:32:30;100731.38;;;10.05;34.86
64679;BME280;51094;53.864;27.676;2023-05-09T05:34:58;100679.25;;;9.71;34.91
64679;BME280;51094;53.864;27.676;2023-05-09T05:37:24;100683.66;;;9.68;34.90
64679;BME280;51094;53.864;27.676;2023-05-09T05:39:52;100661.09;;;9.89;34.52
64679;BME280;51094;53.864;27.676;2023-05-09T05:42:18;100567.66;;;9.50;34.10
64679;BME280;51094;53.864;27.676;2023-05-09T05:44:45;100766.88;;;10.81;34.25
64679;BME280;51094;53.864;27.676;2023-05-09T05:47:12;100759.16;;;10.80;33.28
64679;BME280;51094;53.864;27.676;2023-05-09T05:49:40;100768.94;;;10.92;32.91
64679;BME280;51094;53.864;27.676;2023-05-09T05:52:08;100760.69;;;11.01;33.81
64679;BME280;51094;53.864;27.676;2023-05-09T05:54:35;100736.72;;;10.94;31.83
64679;BME280;51094;53.864;27.676;2023-05-09T05:57:02;100719.34;;;10.78;31.78
64679;BME280;51094;53.864;27.676;2023-05-09T05:59:29;100765.69;;;11.06;31.68
64679;BME280;51094;53.864;27.676;2023-05-09T06:01:56;100705.28;;;10.82;33.51
64679;BME280;51094;53.864;27.676;2023-05-09T06:04:23;100752.06;;;11.18;33.35
64679;BME280;51094;53.864;27.676;2023-05-09T06:06:50;100663.53;;;11.00;32.62
64679;BME280;51094;53.864;27.676;2023-05-09T06:09:17;100735.13;;;11.44;31.77
64679;BME280;51094;53.864;27.676;2023-05-09T06:11:44;100755.34;;;11.56;31.95
64679;BME280;51094;53.864;27.676;2023-05-09T06:14:11;100710.03;;;11.25;30.52
64679;BME280;51094;53.864;27.676;2023-05-09T06:16:38;100760.72;;;11.53;29.26
64679;BME280;51094;53.864;27.676;2023-05-09T06:19:28;100760.94;;;11.65;30.40
64679;BME280;51094;53.864;27.676;2023-05-09T06:21:55;100754.19;;;11.61;28.57
64679;BME280;51094;53.864;27.676;2023-05-09T06:24:22;100758.81;;;11.72;28.78
64679;BME280;51094;53.864;27.676;2023-05-09T06:27:03;100774.25;;;11.77;29.81
64679;BME280;51094;53.864;27.676;2023-05-09T06:29:29;100761.91;;;11.80;28.15
64679;BME280;51094;53.864;27.676;2023-05-09T06:31:56;100760.69;;;11.87;29.56
64679;BME280;51094;53.864;27.676;2023-05-09T06:34:25;100768.47;;;12.05;29.70
64679;BME280;51094;53.864;27.676;2023-05-09T06:36:52;100774.97;;;12.29;29.87
64679;BME280;51094;53.864;27.676;2023-05-09T06:39:19;100753.63;;;12.54;30.25
64679;BME280;51094;53.864;27.676;2023-05-09T06:41:45;100719.88;;;12.35;29.65
64679;BME280;51094;53.864;27.676;2023-05-09T06:44:21;100706.41;;;12.43;29.55
64679;BME280;51094;53.864;27.676;2023-05-09T06:46:48;100751.75;;;12.72;29.85
64679;BME280;51094;53.864;27.676;2023-05-09T06:49:15;100749.97;;;12.88;29.51
64679;BME280;51094;53.864;27.676;2023-05-09T06:51:42;100746.09;;;12.95;28.29
64679;BME280;51094;53.864;27.676;2023-05-09T06:54:08;100779.00;;;12.97;29.39
64679;BME280;51094;53.864;27.676;2023-05-09T06:56:35;100609.81;;;12.28;28.30
64679;BME280;51094;53.864;27.676;2023-05-09T06:59:02;100748.91;;;13.22;27.95
64679;BME280;51094;53.864;27.676;2023-05-09T07:01:29;100682.78;;;13.06;27.24
64679;BME280;51094;53.864;27.676;2023-05-09T07:03:56;100725.34;;;13.38;27.41
64679;BME280;51094;53.864;27.676;2023-05-09T07:06:24;100740.13;;;13.67;27.93
64679;BME280;51094;53.864;27.676;2023-05-09T07:08:51;100715.38;;;13.73;28.63
64679;BME280;51094;53.864;27.676;2023-05-09T07:11:18;100661.69;;;13.67;28.93
64679;BME280;51094;53.864;27.676;2023-05-09T07:13:46;100739.69;;;14.30;28.61
64679;BME280;51094;53.864;27.676;2023-05-09T07:16:13;100723.25;;;14.56;29.16
64679;BME280;51094;53.864;27.676;2023-05-09T07:18:40;100691.00;;;14.56;28.42
64679;BME280;51094;53.864;27.676;2023-05-09T07:21:07;100689.56;;;14.64;28.13
64679;BME280;51094;53.864;27.676;2023-05-09T07:23:34;100712.78;;;14.96;28.67
64679;BME280;51094;53.864;27.676;2023-05-09T07:26:01;100723.41;;;15.07;25.25
64679;BME280;51094;53.864;27.676;2023-05-09T07:28:27;100599.69;;;14.37;25.13
64679;BME280;51094;53.864;27.676;2023-05-09T07:30:54;100675.03;;;14.86;25.21
64679;BME280;51094;53.864;27.676;2023-05-09T07:33:22;100667.78;;;14.77;25.17
64679;BME280;51094;53.864;27.676;2023-05-09T07:35:49;100689.75;;;15.01;27.28
64679;BME280;51094;53.864;27.676;2023-05-09T07:38:16;100707.50;;;15.23;27.17
64679;BME280;51094;53.864;27.676;2023-05-09T07:40:42;100606.81;;;14.75;28.50
64679;BME280;51094;53.864;27.676;2023-05-09T07:43:09;100521.56;;;13.79;26.29
64679;BME280;51094;53.864;27.676;2023-05-09T07:45:36;100663.78;;;15.49;26.48
64679;BME280;51094;53.864;27.676;2023-05-09T07:48:03;100702.59;;;15.69;24.51
64679;BME280;51094;53.864;27.676;2023-05-09T07:50:30;100686.69;;;15.59;27.63
64679;BME280;51094;53.864;27.676;2023-05-09T07:52:57;100702.19;;;15.75;25.12
64679;BME280;51094;53.864;27.676;2023-05-09T07:55:25;100633.59;;;15.56;25.95
64679;BME280;51094;53.864;27.676;2023-05-09T07:57:51;100633.28;;;15.48;23.81
64679;BME280;51094;53.864;27.676;2023-05-09T08:00:18;100658.97;;;15.43;25.05
64679;BME280;51094;53.864;27.676;2023-05-09T08:02:50;100622.72;;;15.11;27.21
64679;BME280;51094;53.864;27.676;2023-05-09T08:05:18;100612.72;;;15.16;28.47
64679;BME280;51094;53.864;27.676;2023-05-09T08:07:45;100686.81;;;15.18;26.24
64679;BME280;51094;53.864;27.676;2023-05-09T08:10:12;100673.09;;;14.62;24.43
64679;BME280;51094;53.864;27.676;2023-05-09T08:12:40;100691.94;;;14.55;25.39
64679;BME280;51094;53.864;27.676;2023-05-09T08:15:07;100690.63;;;14.33;25.36
64679;BME280;51094;53.864;27.676;2023-05-09T08:17:34;100684.66;;;14.31;25.47
64679;BME280;51094;53.864;27.676;2023-05-09T08:20:01;100697.13;;;14.14;24.88
64679;BME280;51094;53.864;27.676;2023-05-09T08:22:28;100683.50;;;14.09;25.67
64679;BME280;51094;53.864;27.676;2023-05-09T08:24:54;100625.53;;;13.88;26.19
64679;BME280;51094;53.864;27.676;2023-05-09T08:27:21;100676.09;;;14.29;26.85
64679;BME280;51094;53.864;27.676;2023-05-09T08:29:48;100641.94;;;14.31;26.88
64679;BME280;51094;53.864;27.676;2023-05-09T08:32:15;100667.00;;;14.35;24.59
64679;BME280;51094;53.864;27.676;2023-05-09T08:34:41;100612.34;;;14.04;23.86
64679;BME280;51094;53.864;27.676;2023-05-09T08:37:08;100588.63;;;13.92;23.56
64679;BME280;51094;53.864;27.676;2023-05-09T08:39:35;100660.66;;;14.66;25.19
64679;BME280;51094;53.864;27.676;2023-05-09T08:42:02;100655.78;;;14.87;27.69
64679;BME280;51094;53.864;27.676;2023-05-09T08:44:29;100648.91;;;15.11;24.39
64679;BME280;51094;53.864;27.676;2023-05-09T08:47:01;100382.38;;;13.88;25.06
64679;BME280;51094;53.864;27.676;2023-05-09T08:49:29;100651.63;;;15.73;23.78
64679;BME280;51094;53.864;27.676;2023-05-09T08:51:56;100651.19;;;15.92;26.52
64679;BME280;51094;53.864;27.676;2023-05-09T08:54:23;100632.28;;;16.00;24.09
64679;BME280;51094;53.864;27.676;2023-05-09T08:56:51;100606.91;;;16.11;23.42
64679;BME280;51094;53.864;27.676;2023-05-09T08:59:17;100646.88;;;16.75;25.22
64679;BME280;51094;53.864;27.676;2023-05-09T09:01:45;100631.63;;;16.91;20.89
64679;BME280;51094;53.864;27.676;2023-05-09T09:04:13;100630.59;;;17.05;21.68
64679;BME280;51094;53.864;27.676;2023-05-09T09:06:40;100612.44;;;17.13;24.24
64679;BME280;51094;53.864;27.676;2023-05-09T09:09:07;100624.94;;;17.67;23.19
64679;BME280;51094;53.864;27.676;2023-05-09T09:11:35;100580.31;;;17.21;20.66
64679;BME280;51094;53.864;27.676;2023-05-09T09:14:10;100530.63;;;17.29;20.75
64679;BME280;51094;53.864;27.676;2023-05-09T09:16:40;100653.59;;;17.92;20.46
64679;BME280;51094;53.864;27.676;2023-05-09T09:19:15;100584.75;;;17.65;21.95
64679;BME280;51094;53.864;27.676;2023-05-09T09:21:44;100600.34;;;18.00;21.06
64679;BME280;51094;53.864;27.676;2023-05-09T09:24:13;100613.63;;;18.10;23.30
64679;BME280;51094;53.864;27.676;2023-05-09T09:26:47;100611.97;;;17.98;20.26
64679;BME280;51094;53.864;27.676;2023-05-09T09:29:14;100611.84;;;17.88;20.05
64679;BME280;51094;53.864;27.676;2023-05-09T09:31:45;100607.75;;;18.06;21.43
64679;BME280;51094;53.864;27.676;2023-05-09T09:34:19;100609.22;;;18.31;21.53
64679;BME280;51094;53.864;27.676;2023-05-09T09:36:46;100625.72;;;18.44;22.44
64679;BME280;51094;53.864;27.676;2023-05-09T09:39:14;100615.09;;;18.67;21.87
64679;BME280;51094;53.864;27.676;2023-05-09T09:41:41;100585.31;;;18.55;19.27
64679;BME280;51094;53.864;27.676;2023-05-09T09:44:15;100576.59;;;18.54;19.72
64679;BME280;51094;53.864;27.676;2023-05-09T09:46:54;100562.09;;;18.60;19.56
64679;BME280;51094;53.864;27.676;2023-05-09T09:49:23;100500.00;;;18.46;20.73
64679;BME280;51094;53.864;27.676;2023-05-09T09:51:51;100468.78;;;18.42;19.49
64679;BME280;51094;53.864;27.676;2023-05-09T09:54:19;100523.34;;;18.72;18.42
64679;BME280;51094;53.864;27.676;2023-05-09T09:56:47;100588.50;;;19.42;18.97
64679;BME280;51094;53.864;27.676;2023-05-09T09:59:20;100566.91;;;19.27;19.03
64679;BME280;51094;53.864;27.676;2023-05-09T10:01:56;100561.31;;;19.20;19.09
64679;BME280;51094;53.864;27.676;2023-05-09T10:04:26;100448.81;;;18.39;18.83
64679;BME280;51094;53.864;27.676;2023-05-09T10:07:00;100412.38;;;18.23;21.48
64679;BME280;51094;53.864;27.676;2023-05-09T10:09:33;100583.09;;;19.83;18.77
64679;BME280;51094;53.864;27.676;2023-05-09T10:12:02;100576.84;;;19.94;17.93
64679;BME280;51094;53.864;27.676;2023-05-09T10:14:31;100560.94;;;19.25;18.60
64679;BME280;51094;53.864;27.676;2023-05-09T10:17:02;100431.59;;;18.35;18.36
64679;BME280;51094;53.864;27.676;2023-05-09T10:19:30;100583.25;;;19.21;18.73
64679;BME280;51094;53.864;27.676;2023-05-09T10:22:04;100581.72;;;19.18;17.84
64679;BME280;51094;53.864;27.676;2023-05-09T10:25:02;100552.31;;;19.53;18.60
64679;BME280;51094;53.864;27.676;2023-05-09T10:27:34;100563.81;;;19.92;17.80
64679;BME280;51094;53.864;27.676;2023-05-09T10:30:03;100564.66;;;20.70;17.55
64679;BME280;51094;53.864;27.676;2023-05-09T10:35:19;100564.25;;;22.04;17.02
64679;BME280;51094;53.864;27.676;2023-05-09T10:37:48;100556.69;;;22.44;19.51
64679;BME280;51094;53.864;27.676;2023-05-09T10:40:16;100560.13;;;22.80;16.02
64679;BME280;51094;53.864;27.676;2023-05-09T10:42:45;100551.16;;;22.64;15.41
64679;BME280;51094;53.864;27.676;2023-05-09T10:45:12;100488.13;;;22.49;16.72
64679;BME280;51094;53.864;27.676;2023-05-09T10:47:41;100565.34;;;22.98;16.57
64679;BME280;51094;53.864;27.676;2023-05-09T10:50:11;100542.03;;;23.44;16.46
64679;BME280;51094;53.864;27.676;2023-05-09T10:58:19;100537.38;;;22.34;16.95
64679;BME280;51094;53.864;27.676;2023-05-09T11:00:51;100534.78;;;22.86;17.38
64679;BME280;51094;53.864;27.676;2023-05-09T11:03:21;100457.03;;;23.94;17.41
64679;BME280;51094;53.864;27.676;2023-05-09T11:05:56;100525.66;;;25.58;16.83
64679;BME280;51094;53.864;27.676;2023-05-09T11:08:27;100520.69;;;26.09;14.87
64679;BME280;51094;53.864;27.676;2023-05-09T11:10:56;100494.09;;;26.24;15.06
64679;BME280;51094;53.864;27.676;2023-05-09T11:13:24;100523.97;;;27.24;15.70
64679;BME280;51094;53.864;27.676;2023-05-09T11:16:03;100451.50;;;27.27;15.13
64679;BME280;51094;53.864;27.676;2023-05-09T11:18:31;100485.25;;;28.34;13.88
64679;BME280;51094;53.864;27.676;2023-05-09T11:21:00;100511.09;;;29.59;12.23
64679;BME280;51094;53.864;27.676;2023-05-09T11:23:32;100492.56;;;31.16;11.25
64679;BME280;51094;53.864;27.676;2023-05-09T11:26:04;100486.75;;;31.05;10.14
64679;BME280;51094;53.864;27.676;2023-05-09T11:28:34;100499.50;;;32.74;9.89
64679;BME280;51094;53.864;27.676;2023-05-09T11:31:09;100495.31;;;34.58;8.33
64679;BME280;51094;53.864;27.676;2023-05-09T11:33:37;100483.19;;;36.81;7.63
64679;BME280;51094;53.864;27.676;2023-05-09T11:36:17;100485.19;;;38.20;6.87
64679;BME280;51094;53.864;27.676;2023-05-09T11:38:46;100481.50;;;39.56;4.96
64679;BME280;51094;53.864;27.676;2023-05-09T11:41:14;100484.25;;;40.17;4.42
64679;BME280;51094;53.864;27.676;2023-05-09T11:43:42;100422.03;;;41.59;4.44
64679;BME280;51094;53.864;27.676;2023-05-09T11:46:10;100423.25;;;42.34;3.62
64679;BME280;51094;53.864;27.676;2023-05-09T11:48:39;100412.03;;;42.36;3.92
64679;BME280;51094;53.864;27.676;2023-05-09T11:51:15;100452.34;;;42.73;3.65
64679;BME280;51094;53.864;27.676;2023-05-09T11:53:45;100468.59;;;42.35;3.17
64679;BME280;51094;53.864;27.676;2023-05-09T11:56:15;100467.00;;;41.71;3.65
64679;BME280;51094;53.864;27.676;2023-05-09T11:58:42;100411.72;;;42.61;4.68
64679;BME280;51094;53.864;27.676;2023-05-09T12:01:10;100425.91;;;43.62;3.41
64679;BME280;51094;53.864;27.676;2023-05-09T12:03:43;100422.06;;;43.77;4.09
64679;BME280;51094;53.864;27.676;2023-05-09T12:06:15;100363.28;;;43.23;3.59
64679;BME280;51094;53.864;27.676;2023-05-09T12:08:44;100297.75;;;37.36;5.49
64679;BME280;51094;53.864;27.676;2023-05-09T12:11:11;100440.44;;;33.99;7.57
64679;BME280;51094;53.864;27.676;2023-05-09T12:13:48;100433.03;;;31.05;8.90
64679;BME280;51094;53.864;27.676;2023-05-09T12:16:17;100432.72;;;28.55;9.59
64679;BME280;51094;53.864;27.676;2023-05-09T12:18:49;100405.72;;;27.94;10.42
64679;BME280;51094;53.864;27.676;2023-05-09T12:21:17;100430.88;;;26.47;11.90
64679;BME280;51094;53.864;27.676;2023-05-09T12:23:47;100436.47;;;25.23;11.99
64679;BME280;51094;53.864;27.676;2023-05-09T12:26:20;100286.88;;;27.62;9.65
64679;BME280;51094;53.864;27.676;2023-05-09T12:28:48;100356.41;;;34.54;7.61
64679;BME280;51094;53.864;27.676;2023-05-09T12:31:16;100330.53;;;37.29;6.08
64679;BME280;51094;53.864;27.676;2023-05-09T12:33:43;100383.97;;;40.35;5.09
64679;BME280;51094;53.864;27.676;2023-05-09T12:36:11;100379.47;;;41.87;3.83
64679;BME280;51094;53.864;27.676;2023-05-09T12:38:39;100333.38;;;42.70;3.25
64679;BME280;51094;53.864;27.676;2023-05-09T12:41:08;100384.75;;;43.81;2.72
64679;BME280;51094;53.864;27.676;2023-05-09T12:43:56;100381.28;;;44.49;2.26
64679;BME280;51094;53.864;27.676;2023-05-09T12:46:23;100308.44;;;43.88;3.05
64679;BME280;51094;53.864;27.676;2023-05-09T12:48:50;100395.59;;;44.60;2.97
64679;BME280;51094;53.864;27.676;2023-05-09T12:51:18;100389.66;;;44.66;2.76
64679;BME280;51094;53.864;27.676;2023-05-09T12:53:46;100378.47;;;44.90;2.74
64679;BME280;51094;53.864;27.676;2023-05-09T12:56:15;100378.66;;;45.16;2.76
64679;BME280;51094;53.864;27.676;2023-05-09T12:58:53;100375.06;;;45.29;3.36
64679;BME280;51094;53.864;27.676;2023-05-09T13:01:22;100378.53;;;44.99;2.69
64679;BME280;51094;53.864;27.676;2023-05-09T13:04:01;100381.06;;;39.75;4.82
64679;BME280;51094;53.864;27.676;2023-05-09T13:06:29;100289.56;;;38.05;5.35
64679;BME280;51094;53.864;27.676;2023-05-09T13:08:58;100347.06;;;33.98;6.18